Ana Sayfa
METAR-TAF:

METAR-TAF

Havaalanları :

Childress, Teksas, Amerika Birleşik Devletleri

Enlem: 34-25-39N, Boylam: 100-17-00W, yükseklik: 595 m

Güncel hava durumu gözlemi

Rapor saat 20:53 UTC de 7 dakika önce yapıldı.
Rüzgar kuzeydoğudan 6 kt
Sıcaklık 10°C
Nem 34%
Basınç 1030 hPa
Görüş mesafesi: 16.1 km
Açık gökyüzü

METAR: KCDS 182053Z AUTO 04006KT 10SM CLR 10/M05 A3042 RMK AO2 SLP300 T01001050 56013

Saat: 15:00 (21:00 UTC)

Tahmin

Rapor saat 17:24 UTC de 3 saat ve 36 dakika önce yapıldı.
Ayın 18'si saat 18 UTC'den ayın 19'si saat 18 UTC'ye kadar geçerli Tahmin
Rüzgar kuzey/kuzeydoğudan 11 kt
Görüş mesafesi: 10 km
Açık gökyüzü
Ayın 18'si saat 2300 UTC'den
Rüzgar değişken yönden 6 kt
Görüş mesafesi: 10 km
Açık gökyüzü

TAF: KCDS 181724Z 1818/1918 03011KT P6SM SKC FM182300 VRB06KT P6SM SKC

4.000'den fazla havaalanı için hava durumu gözlemleri ve tahminleri (METAR ve TAF raporları).

Kullanılabilir istasyonlar harita üzerinde sarı ve kırmızı noktalarla gösterilir.

İstasyonun adını görmek için fareyi noktanın üzerinde gezdirin.

Sonrasında hava gözlem ve tahminlerini görmek için tıklayın.

Haritayı değiştirmek için: yaklaştırmak için siyah artı işaretli yeşil düğmeye ve uzaklaştırmak için de eksi işaretli düğmeye hızla tıklayın; bitişik haritalar için yeşil okları kullanın.


METAR-TAF: